Data for 09/30/2013

Time Sea-Level Adjusted Pressure Absolute Pressure Temperature Relative Humidity Dew Point   
(mb) (inHg) (mb) (inHg) (C) (F) (%) (C) (F)
00:05 1009 29.8 838 24.75 6.2 43.2 89 4.5 40.1
00:10 1009 29.8 838 24.75 6.1 42.9 90 4.5 40.2
00:15 1009 29.8 838 24.75 5.9 42.6 91 4.6 40.2
00:20 1009 29.8 838 24.75 5.8 42.5 92 4.6 40.3
00:25 1009 29.8 838 24.75 5.8 42.4 92 4.6 40.3
00:30 1009 29.8 838 24.75 5.8 42.4 92 4.6 40.3
00:35 1009 29.8 838 24.75 5.7 42.3 93 4.6 40.3
00:40 1009 29.8 838 24.75 5.7 42.3 93 4.6 40.3
00:45 1009 29.8 838 24.75 5.7 42.3 93 4.7 40.4
00:50 1009 29.8 838 24.75 5.8 42.4 93 4.7 40.4
00:55 1009 29.8 838 24.75 5.7 42.3 93 4.6 40.3
01:00 1009 29.8 838 24.75 5.8 42.4 92 4.6 40.3
01:05 1009 29.8 838 24.75 5.8 42.5 92 4.6 40.3
01:10 1009 29.8 838 24.75 5.9 42.7 92 4.7 40.5
01:15 1009 29.8 838 24.75 6 42.9 90 4.6 40.2
01:20 1009 29.8 838 24.75 6.1 43 90 4.6 40.3
01:25 1009 29.8 838 24.75 6.2 43.1 89 4.5 40.1
01:30 1009 29.8 838 24.75 6.2 43.2 90 4.7 40.5
01:35 1009 29.8 838 24.75 6.2 43.2 90 4.7 40.5
01:40 1009 29.8 838 24.75 6.3 43.3 91 4.9 40.8
01:45 1009 29.8 838 24.75 6.1 42.9 92 4.8 40.7
01:50 1009 29.8 838 24.75 6 42.8 92 4.8 40.7
01:55 1008 29.77 838 24.75 6 42.8 92 4.8 40.7
02:00 1008 29.77 838 24.75 6.1 42.9 91 4.8 40.6
02:05 1009 29.8 838 24.75 6.2 43.2 91 4.8 40.6
02:10 1008 29.77 838 24.75 6.3 43.3 90 4.7 40.5
02:15 1008 29.77 838 24.75 6.3 43.3 91 4.9 40.7
02:20 1008 29.77 838 24.75 6.2 43.1 91 4.8 40.7
02:25 1008 29.77 837 24.72 6.1 43 91 4.8 40.7
02:30 1008 29.77 837 24.72 6.1 43 92 4.9 40.8
02:35 1008 29.77 837 24.72 6.1 43.1 92 5 40.9
02:40 1008 29.77 837 24.72 6.1 43 92 4.9 40.9
02:45 1008 29.77 837 24.72 6.1 43 92 5 41
02:50 1008 29.77 837 24.72 6.1 43 92 5 41
02:55 1008 29.77 837 24.72 6.1 43 93 5 41
03:00 1008 29.77 837 24.72 6.2 43.1 92 5 41
03:05 1008 29.77 837 24.72 6.2 43.2 92 5 41
03:10 1008 29.77 837 24.72 6.3 43.3 92 5 41.1
03:15 1008 29.77 837 24.72 6.3 43.3 91 5 41
03:20 1008 29.77 837 24.72 6.4 43.6 91 5 41.1
03:25 1008 29.77 837 24.72 6.4 43.6 91 5.1 41.2
03:30 1008 29.77 837 24.72 6.4 43.5 91 5.1 41.1
03:35 1008 29.77 837 24.72 6.4 43.5 91 5.1 41.2
03:40 1008 29.77 837 24.72 6.4 43.6 91 5.1 41.2
03:45 1008 29.77 837 24.72 6.5 43.7 91 5.1 41.2
03:50 1008 29.77 837 24.72 6.5 43.7 91 5.1 41.2
03:55 1008 29.77 837 24.72 6.6 43.8 90 5 41
04:00 1008 29.77 837 24.72 6.9 44.4 89 5.2 41.3
04:05 1007 29.74 837 24.72 6.8 44.2 90 5.2 41.4
04:10 1008 29.77 837 24.72 6.7 44.1 90 5.2 41.4
04:15 1008 29.77 837 24.72 6.8 44.2 91 5.3 41.6
04:20 1008 29.77 837 24.72 6.7 44 90 5.2 41.4
04:25 1007 29.74 837 24.72 6.7 44 91 5.3 41.5
04:30 1007 29.74 836 24.69 6.7 44 92 5.4 41.7
04:35 1007 29.74 836 24.69 6.6 43.9 92 5.5 41.9
04:40 1007 29.74 836 24.69 6.6 43.9 92 5.5 41.9
04:45 1007 29.74 836 24.69 6.7 44 92 5.5 41.9
04:50 1007 29.74 836 24.69 6.7 44.1 92 5.5 41.9
04:55 1007 29.74 836 24.69 6.8 44.2 92 5.6 42
05:00 1007 29.74 836 24.69 6.8 44.2 92 5.5 41.9
05:05 1006 29.71 836 24.69 6.7 44 92 5.5 41.9
05:10 1006 29.71 836 24.69 6.6 43.9 92 5.5 41.8
05:15 1006 29.71 835 24.66 6.6 43.8 93 5.5 41.8
05:20 1006 29.71 835 24.66 6.7 44.1 92 5.5 41.8
05:25 1006 29.71 835 24.66 6.9 44.3 91 5.5 42
05:30 1006 29.71 835 24.66 6.9 44.5 91 5.5 41.9
05:35 1006 29.71 835 24.66 7.1 44.8 90 5.5 41.9
05:40 1006 29.71 835 24.66 7.1 44.9 90 5.6 42.1
05:45 1006 29.71 835 24.66 7.2 44.9 90 5.6 42.2
05:50 1006 29.71 835 24.66 7.2 44.9 90 5.6 42.1
05:55 1005 29.68 835 24.66 7.2 45 90 5.7 42.2
06:00 1005 29.68 834 24.63 7.3 45.2 90 5.7 42.3
06:05 1005 29.68 834 24.63 7.3 45.2 89 5.7 42.2
06:10 1005 29.68 834 24.63 7.3 45.2 89 5.6 42.1
06:15 1005 29.68 834 24.63 7.4 45.2 89 5.6 42.1
06:20 1005 29.68 834 24.63 7.3 45.1 88 5.5 41.9
06:25 1005 29.68 834 24.63 7.3 45.2 88 5.5 41.9
06:30 1005 29.68 834 24.63 7.4 45.3 88 5.6 42
06:35 1005 29.68 834 24.63 7.5 45.5 87 5.4 41.8
06:40 1004 29.65 834 24.63 7.7 45.8 86 5.5 41.9
06:45 1004 29.65 833 24.6 7.6 45.8 87 5.6 42
06:50 1004 29.65 833 24.6 7.6 45.7 86 5.4 41.7
06:55 1004 29.65 833 24.6 7.9 46.2 83 5.2 41.3
07:00 1004 29.65 833 24.6 8.2 46.7 83 5.4 41.7
07:05 1004 29.65 833 24.6 8.2 46.7 84 5.6 42.1
07:10 1004 29.65 833 24.6 8.4 47.1 80 5.1 41.3
07:15 1004 29.65 833 24.6 8.8 47.9 75 4.7 40.5
07:20 1004 29.65 833 24.6 9.9 49.9 67 4 39.3
07:25 1004 29.65 833 24.6 10.7 51.2 63 4.1 39.3
07:30 1004 29.65 833 24.6 11.7 53 62 4.6 40.3
07:35 1004 29.65 833 24.6 12.1 53.8 59 4.4 39.9
07:40 1004 29.65 833 24.6 13.1 55.6 53 3.9 39.1
07:45 1004 29.65 833 24.6 13.8 56.8 53 4.5 40.1
07:50 1004 29.65 833 24.6 13.8 56.8 54 4.7 40.5
07:55 1004 29.65 834 24.63 13.4 56.1 63 6.6 43.9
08:00 1004 29.65 833 24.6 12.5 54.6 60 5 40.9
08:05 1004 29.65 834 24.63 12.5 54.6 66 6.4 43.6
08:10 1005 29.68 834 24.63 11.7 53 70 6.5 43.7
08:15 1005 29.68 834 24.63 11.2 52.2 71 6.1 42.9
08:20 1005 29.68 834 24.63 11 51.9 71 5.9 42.7
08:25 1005 29.68 834 24.63 11.2 52.1 68 5.5 41.9
08:30 1005 29.68 834 24.63 11.4 52.5 69 5.9 42.6
08:35 1004 29.65 834 24.63 11.7 53 61 4.4 39.9
08:40 1004 29.65 834 24.63 12.7 54.8 56 4.3 39.7
08:45 1004 29.65 834 24.63 12.8 55.1 59 5 41
08:50 1005 29.68 835 24.66 12.1 53.7 68 6.3 43.4
08:55 1006 29.71 835 24.66 9 48.2 77 5.1 41.2
09:00 1007 29.74 836 24.69 7.4 45.3 83 4.7 40.4
09:05 1007 29.74 836 24.69 6.5 43.8 86 4.4 39.9
09:10 1008 29.77 837 24.72 6.3 43.3 89 4.6 40.2
09:15 1008 29.77 837 24.72 6.2 43.2 90 4.8 40.6
09:20 1008 29.77 837 24.72 6.2 43.2 91 4.9 40.8
09:25 1008 29.77 837 24.72 6.1 43 91 4.7 40.5
09:30 1009 29.8 838 24.75 5.9 42.7 91 4.6 40.3
09:35 1009 29.8 838 24.75 5.8 42.5 91 4.5 40.1
09:40 1009 29.8 839 24.78 5.8 42.4 91 4.5 40
09:45 1010 29.83 839 24.78 5.8 42.4 90 4.2 39.6
09:50 1010 29.83 839 24.78 5.7 42.2 89 4 39.2
09:55 1010 29.83 839 24.78 5.5 41.9 87 3.6 38.5
10:00 1010 29.83 839 24.78 5.4 41.8 89 3.8 38.8
10:05 1010 29.83 839 24.78 5.4 41.7 90 3.8 38.9
10:10 1010 29.83 840 24.81 5.3 41.5 90 3.8 38.9
10:15 1010 29.83 840 24.81 5.2 41.3 87 3.2 37.7
10:20 1011 29.85 840 24.81 5 41 88 3.1 37.6
10:25 1011 29.85 840 24.81 4.9 40.8 88 3 37.4
10:30 1011 29.85 840 24.81 4.8 40.7 88 3 37.4
10:35 1011 29.85 840 24.81 4.8 40.6 88 3 37.4
10:40 1011 29.85 840 24.81 4.8 40.6 89 3.1 37.6
10:45 1011 29.85 840 24.81 4.8 40.6 89 3.2 37.7
10:50 1011 29.85 840 24.81 4.7 40.4 89 3 37.5
10:55 1011 29.85 840 24.81 4.6 40.3 87 2.7 36.9
11:00 1011 29.85 840 24.81 4.5 40.1 89 2.9 37.2
11:05 1011 29.85 840 24.81 4.5 40.2 90 3 37.4
11:10 1011 29.85 840 24.81 4.5 40.1 88 2.6 36.7
11:15 1011 29.85 840 24.81 4.5 40.1 88 2.6 36.7
11:20 1011 29.85 841 24.83 4.4 39.9 87 2.5 36.4
11:25 1011 29.85 841 24.83 4.2 39.6 87 2.3 36.2
11:30 1011 29.85 841 24.83 3.7 38.7 87 1.9 35.3
11:35 1011 29.85 841 24.83 3.6 38.5 89 1.9 35.5
11:40 1011 29.85 840 24.81 3.5 38.2 88 1.7 35.1
11:45 1011 29.85 840 24.81 3.4 38.1 89 1.8 35.2
11:50 1011 29.85 840 24.81 3.5 38.2 89 1.8 35.2
11:55 1011 29.85 840 24.81 3.6 38.4 89 2 35.6
12:00 1011 29.85 840 24.81 3.8 38.8 88 1.9 35.5
12:05 1011 29.85 840 24.81 3.9 39.1 91 2.6 36.7
12:10 1011 29.85 840 24.81 4.5 40 87 2.5 36.4
12:15 1011 29.85 840 24.81 4.9 40.9 85 2.7 36.9
12:20 1011 29.85 840 24.81 5 40.9 84 2.5 36.5
12:25 1011 29.85 840 24.81 4.9 40.7 84 2.3 36.2
12:30 1011 29.85 840 24.81 5 41.1 85 2.8 37
12:35 1011 29.85 840 24.81 5.2 41.3 85 2.8 37
12:40 1011 29.85 840 24.81 5.5 41.8 86 3.3 38
12:45 1011 29.85 840 24.81 5.2 41.3 85 2.8 37
12:50 1011 29.85 840 24.81 5 41 86 2.8 37
12:55 1011 29.85 840 24.81 5.4 41.7 81 2.3 36.1
13:00 1011 29.85 840 24.81 5.8 42.4 81 2.8 37
13:05 1011 29.85 840 24.81 6.2 43.1 78 2.7 36.8
13:10 1011 29.85 841 24.83 6.3 43.3 77 2.5 36.5
13:15 1011 29.85 840 24.81 6.4 43.4 75 2.3 36.2
13:20 1011 29.85 840 24.81 6.4 43.6 76 2.6 36.6
13:25 1011 29.85 840 24.81 6.4 43.6 78 2.8 37.1
13:30 1011 29.85 840 24.81 6.7 44.1 72 2 35.6
13:35 1011 29.85 840 24.81 7.3 45.1 69 1.9 35.4
13:40 1011 29.85 841 24.83 7.8 46 68 2.2 36
13:45 1011 29.85 841 24.83 8.2 46.8 64 1.8 35.2
13:50 1011 29.85 840 24.81 8.8 47.8 66 2.9 37.2
13:55 1011 29.85 840 24.81 8.8 47.9 63 2.3 36.2
14:00 1011 29.85 841 24.83 8.7 47.6 69 3.3 38
14:05 1012 29.88 841 24.83 8.7 47.6 66 2.8 37
14:10 1012 29.88 841 24.83 8.7 47.7 63 2 35.7
14:15 1011 29.85 841 24.83 8.8 47.8 66 2.9 37.2
14:20 1012 29.88 841 24.83 8.7 47.7 67 2.9 37.3
14:25 1012 29.88 841 24.83 8.6 47.5 67 2.9 37.2
14:30 1012 29.88 841 24.83 8.6 47.4 68 3 37.4
14:35 1012 29.88 841 24.83 8.6 47.5 69 3.3 38
14:40 1012 29.88 841 24.83 8.7 47.7 68 3.2 37.7
14:45 1011 29.85 841 24.83 8.7 47.7 69 3.5 38.2
14:50 1012 29.88 841 24.83 8.8 47.9 66 2.8 37.1
14:55 1012 29.88 841 24.83 8.9 48.1 65 2.7 36.8
15:00 1012 29.88 841 24.83 9.1 48.4 64 2.8 37
15:05 1012 29.88 841 24.83 9.3 48.8 58 1.6 34.9
15:10 1012 29.88 841 24.83 9.9 49.7 49 -0.4 31.3
15:15 1012 29.88 841 24.83 10.6 51.1 47 -0.2 31.7
15:20 1012 29.88 841 24.83 11 51.8 47 0.3 32.5
15:25 1012 29.88 841 24.83 11.2 52.1 46 0 32.1
15:30 1012 29.88 841 24.83 11.1 52 40 -2.1 28.3
15:35 1012 29.88 841 24.83 10.7 51.2 41 -2.1 28.2
15:40 1012 29.88 841 24.83 10.7 51.2 36 -3.6 25.5
15:45 1012 29.88 841 24.83 11.1 52 35 -3.8 25.1
15:50 1012 29.88 841 24.83 11.3 52.3 36 -3.2 26.3
15:55 1012 29.88 842 24.86 11.3 52.3 35 -3.7 25.3
16:00 1012 29.88 842 24.86 11.5 52.6 35 -3.4 25.9
16:05 1012 29.88 842 24.86 11.1 52 34 -4 24.9
16:10 1012 29.88 842 24.86 11.1 52 35 -3.6 25.6
16:15 1012 29.88 842 24.86 11.3 52.3 35 -3.7 25.4
16:20 1013 29.91 842 24.86 11.2 52.2 34 -4 24.7
16:25 1013 29.91 842 24.86 11.4 52.5 35 -3.4 25.8
16:30 1013 29.91 842 24.86 11.3 52.4 34 -4 24.8
16:35 1013 29.91 842 24.86 11.1 51.9 36 -3.5 25.8
16:40 1013 29.91 842 24.86 11.1 51.9 35 -3.9 25
16:45 1013 29.91 842 24.86 10.9 51.6 36 -3.6 25.5
16:50 1013 29.91 842 24.86 11 51.9 36 -3.5 25.7
16:55 1013 29.91 842 24.86 11 51.9 38 -2.7 27.1
17:00 1013 29.91 842 24.86 11 51.7 36 -3.5 25.7
17:05 1013 29.91 842 24.86 10.7 51.3 36 -3.6 25.5
17:10 1013 29.91 842 24.86 10.7 51.3 36 -3.6 25.6
17:15 1013 29.91 842 24.86 10.6 51.2 37 -3.5 25.7
17:20 1013 29.91 842 24.86 10.6 51.1 37 -3.5 25.6
17:25 1013 29.91 842 24.86 10.5 50.9 37 -3.6 25.6
17:30 1013 29.91 842 24.86 10.4 50.6 39 -2.9 26.7
17:35 1013 29.91 843 24.89 10.1 50.2 40 -2.8 26.9
17:40 1013 29.91 843 24.89 9.6 49.3 41 -2.9 26.7
17:45 1014 29.94 843 24.89 9.2 48.5 42 -3 26.7
17:50 1014 29.94 843 24.89 8.9 47.9 43 -2.9 26.7
17:55 1014 29.94 843 24.89 8.6 47.5 46 -2.4 27.8
18:00 1014 29.94 843 24.89 8.3 46.9 47 -2.5 27.6
18:05 1014 29.94 843 24.89 8 46.3 47 -2.5 27.4
18:10 1014 29.94 843 24.89 7.7 45.9 49 -2.3 27.8
18:15 1014 29.94 843 24.89 7.5 45.6 49 -2.4 27.7
18:20 1014 29.94 843 24.89 7.3 45.1 51 -2.3 27.9
18:25 1014 29.94 843 24.89 7.1 44.7 51 -2.5 27.5
18:30 1014 29.94 843 24.89 7 44.7 49 -2.8 26.9
18:35 1014 29.94 843 24.89 7 44.6 53 -2 28.4
18:40 1014 29.94 843 24.89 6.5 43.8 54 -2.1 28.2
18:45 1014 29.94 843 24.89 6.6 43.8 52 -2.4 27.6
18:50 1014 29.94 843 24.89 6.6 43.9 54 -2 28.4
18:55 1014 29.94 843 24.89 6.5 43.7 55 -1.9 28.5
19:00 1014 29.94 844 24.92 6.4 43.5 58 -1.1 30
19:05 1015 29.97 844 24.92 6.1 43 56 -1.9 28.6
19:10 1015 29.97 844 24.92 5.9 42.6 57 -1.9 28.6
19:15 1015 29.97 844 24.92 6.2 43.2 56 -2 28.4
19:20 1015 29.97 844 24.92 6.3 43.3 54 -2.4 27.7
19:25 1015 29.97 844 24.92 6.3 43.3 53 -2.6 27.2
19:30 1015 29.97 844 24.92 6.3 43.3 57 -1.6 29.1
19:35 1015 29.97 844 24.92 6.2 43.1 54 -2.3 27.8
19:40 1015 29.97 845 24.95 6.4 43.4 52 -2.7 27.1
19:45 1015 29.97 845 24.95 6.2 43.2 58 -1.4 29.6
19:50 1015 29.97 845 24.95 5.6 42.1 60 -1.6 29.2
19:55 1016 30 845 24.95 5.4 41.8 61 -1.6 29.2
20:00 1016 30 845 24.95 5.4 41.6 61 -1.5 29.3
20:05 1016 30 845 24.95 5.2 41.3 65 -0.9 30.3
20:10 1016 30 845 24.95 4.7 40.5 69 -0.4 31.3
20:15 1016 30 845 24.95 4.4 39.9 70 -0.7 30.7
20:20 1016 30 845 24.95 4.4 40 69 -0.7 30.7
20:25 1016 30 845 24.95 4.4 40 69 -0.7 30.7
20:30 1016 30 845 24.95 4.4 39.9 72 -0.1 31.7
20:35 1016 30 845 24.95 4.2 39.5 72 -0.4 31.3
20:40 1016 30 845 24.95 4.1 39.4 73 -0.4 31.3
20:45 1016 30 845 24.95 3.9 39 74 -0.3 31.5
20:50 1016 30 845 24.95 3.5 38.3 74 -0.6 30.9
20:55 1016 30 845 24.95 3.5 38.3 75 -0.5 31.1
21:00 1016 30 845 24.95 3.3 37.9 78 -0.2 31.6
21:05 1016 30 845 24.95 3.2 37.8 75 -0.8 30.6
21:10 1016 30 845 24.95 3.7 38.6 70 -1.2 29.8
21:15 1016 30 845 24.95 4.1 39.4 66 -1.6 29.1
21:20 1016 30 845 24.95 4.3 39.7 66 -1.5 29.2
21:25 1016 30 845 24.95 4.6 40.2 63 -1.9 28.5
21:30 1016 30 845 24.95 4.6 40.4 70 -0.3 31.4
21:35 1016 30 846 24.98 3.9 38.9 70 -1.2 29.9
21:40 1016 30 846 24.98 3.9 39 69 -1.2 29.9
21:45 1016 30 846 24.98 3.9 39.1 71 -0.9 30.4
21:50 1016 30 846 24.98 3.7 38.7 73 -0.6 30.8
21:55 1016 30 846 24.98 3.3 37.9 74 -0.9 30.5
22:00 1016 30 846 24.98 3 37.4 77 -0.6 31
22:05 1016 30 846 24.98 2.3 36.2 81 -0.6 30.9
22:10 1016 30 846 24.98 2 35.6 78 -1.4 29.5
22:15 1016 30 846 24.98 2.7 36.9 72 -1.9 28.6
22:20 1017 30.03 846 24.98 3.3 37.9 70 -1.8 28.8
22:25 1017 30.03 846 24.98 4.4 39.9 63 -2.1 28.2
22:30 1017 30.03 846 24.98 4.8 40.6 59 -2.5 27.5
22:35 1017 30.03 846 24.98 4.8 40.6 60 -2.3 27.9
22:40 1016 30 846 24.98 4.5 40.2 62 -2.1 28.2
22:45 1016 30 846 24.98 4.2 39.6 65 -1.8 28.8
22:50 1016 30 846 24.98 3.9 38.9 66 -1.8 28.7
22:55 1016 30 846 24.98 3.7 38.7 66 -2.1 28.3
23:00 1016 30 846 24.98 3.5 38.4 66 -2.3 27.9
23:05 1016 30 846 24.98 3.5 38.3 64 -2.6 27.3
23:10 1016 30 846 24.98 3.6 38.5 64 -2.5 27.5
23:15 1016 30 846 24.98 3.4 38.2 68 -1.9 28.5
23:20 1017 30.03 846 24.98 3.3 37.9 65 -2.7 27.1
23:25 1017 30.03 846 24.98 3.4 38.2 64 -2.8 27
23:30 1017 30.03 846 24.98 3.5 38.3 65 -2.5 27.6
23:35 1017 30.03 846 24.98 3.3 37.9 65 -2.7 27.2
23:40 1017 30.03 846 24.98 3.1 37.6 67 -2.4 27.6
23:45 1017 30.03 846 24.98 3 37.4 63 -3.3 26.1
23:50 1017 30.03 846 24.98 3.5 38.4 61 -3.2 26.2
23:55 1016 30 846 24.98 3.8 38.9 60 -3.2 26.2
24:00 1016 30 846 24.98 4 39.2 61 -2.7 27.1